Aeroporto :
LOGIN :

Iscrizione | Disclaimer

   EN    FR    IT 

 










Sommario :    VFR   VFR Marginale   IFR   IFR Intensivo   IFR Molto Intensivo
Visibilità : 
Base nubi : 
>= 8 km
>= 3000ft
5 / 8 km
1000 / 3000 ft
1500m / 5 km
500 / 1000 ft
800 / 1500m
200 / 500 ft
< 800m
< 200 ft
Simboli :   Temporali  Nebbia  Neve Forte  Precipitazioni Forti  Vento > 20 kt
SIGMETs :   Varie  Temporali  Ghiacco  Turbolenza  Onda orograficha  Ceneri Vulcaniche






- Altitudine del aeroporto : 373 ft
- Codice IATA : OZH


UKDE - Mokraya

ULTIMO METAR :
  • 210500Z 36004MPS 9999 BKN039 02/M01 Q1021 R02R/090070 NOSIG

METARs OBSOLETI :
  • 210400Z 36004MPS 9999 BKN031 01/M01 Q1020 R02R/090070 NOSIG
  • 210300Z 36005MPS 9999 BKN039 01/M01 Q1020 R02R/090070 NOSIG

TAF TAF UKDE
Valido dal 21 a 03 ore il 21 a 12 ore UTC


210201Z 2103/2112 03005MPS 9999 BKN020 TX03/2112Z TN01/2104Z
TEMPO 2103/2106 3100 BR BKN006



MetMap, La meteo Aeronautica in un colpo d'occhio ! - Copyright ORBIFLY Dicembre 2007 - Disclaimer

ORBIFLY MET'MAP TEAM :

Programmazione e sviluppo : Alexandra Zaïnal
Concezione : Baudouin d'Aumeries
Aiuto per la programmazione : Marc-Olivier Méhu
Supporto tecnico e logistico : Manuel Goepfert
Aiuto per la traduzione : Arnaldo La Scala

Contatto : metmap@orbifly.com




FONTI E CREDITI :

   NOAA